createdAt,value
2023-03-06T00:54:53.585Z,94273.00
2023-03-06T00:55:54.545Z,94271.00
2023-03-06T00:56:54.538Z,94273.00
2023-03-06T00:57:54.525Z,94273.00
2023-03-06T00:58:54.522Z,94271.00
2023-03-06T00:59:54.512Z,94273.00
2023-03-06T01:00:54.519Z,94273.00
2023-03-06T01:01:54.629Z,94269.00
2023-03-06T01:02:54.478Z,94273.00
2023-03-06T01:03:54.476Z,94271.00
2023-03-06T01:04:54.466Z,94267.00
2023-03-06T01:05:54.462Z,94267.00
2023-03-06T01:06:54.442Z,94267.00
2023-03-06T01:07:54.439Z,94267.00
2023-03-06T01:08:54.423Z,94265.00
2023-03-06T01:09:54.413Z,94267.00
2023-03-06T01:10:54.445Z,94267.00
2023-03-06T01:11:54.394Z,94267.00
2023-03-06T01:12:54.817Z,94265.00
2023-03-06T01:13:54.393Z,94265.00
2023-03-06T01:14:54.371Z,94263.00
2023-03-06T01:15:54.385Z,94261.00
2023-03-06T01:16:54.361Z,94263.00
2023-03-06T01:17:54.341Z,94259.00
2023-03-06T01:18:54.337Z,94257.00
2023-03-06T01:19:54.327Z,94257.00
2023-03-06T01:20:54.312Z,94257.00
2023-03-06T01:21:54.305Z,94255.00
2023-03-06T01:22:54.299Z,94247.00
2023-03-06T01:23:54.288Z,94251.00
2023-03-06T01:24:54.277Z,94247.00
2023-03-06T01:25:54.270Z,94247.00
2023-03-06T01:26:54.279Z,94247.00
2023-03-06T01:27:54.260Z,94243.00
2023-03-06T01:28:54.240Z,94243.00
2023-03-06T01:29:54.232Z,94243.00
2023-03-06T01:30:54.218Z,94243.00
2023-03-06T01:31:54.246Z,94237.00
2023-03-06T01:32:54.203Z,94237.00
2023-03-06T01:33:54.190Z,94235.00
2023-03-06T01:34:54.180Z,94233.00
2023-03-06T01:35:54.245Z,94231.00
2023-03-06T01:36:54.176Z,94229.00
2023-03-06T01:37:54.154Z,94229.00
2023-03-06T01:38:54.151Z,94229.00
2023-03-06T01:39:54.138Z,94227.00
2023-03-06T01:40:54.130Z,94227.00
2023-03-06T01:41:54.127Z,94227.00
2023-03-06T01:42:54.137Z,94227.00
2023-03-06T01:43:54.111Z,94227.00
2023-03-06T01:44:54.091Z,94227.00
2023-03-06T01:45:54.125Z,94225.00
2023-03-06T01:46:54.078Z,94221.00
2023-03-06T01:47:54.065Z,94220.00
2023-03-06T01:48:54.053Z,94221.00
2023-03-06T01:49:54.049Z,94218.00
2023-03-06T01:50:54.049Z,94216.00
2023-03-06T01:51:54.036Z,94216.00
2023-03-06T01:52:54.021Z,94214.00
2023-03-06T01:53:54.008Z,94212.00
2023-03-06T01:54:54.006Z,94210.00
2023-03-06T01:55:53.994Z,94208.00
2023-03-06T01:56:53.988Z,94206.00
2023-03-06T01:57:53.987Z,94206.00
2023-03-06T01:58:54.004Z,94204.00
2023-03-06T01:59:53.959Z,94200.00
2023-03-06T02:00:53.997Z,94202.00
2023-03-06T02:01:53.946Z,94198.00
2023-03-06T02:02:53.930Z,94200.00
2023-03-06T02:03:53.927Z,94198.00
2023-03-06T02:04:53.915Z,94198.00
2023-03-06T02:05:53.906Z,94196.00
2023-03-06T02:06:53.902Z,94194.00
2023-03-06T02:07:53.887Z,94194.00
2023-03-06T02:08:53.890Z,94190.00
2023-03-06T02:09:53.868Z,94190.00
2023-03-06T02:10:53.862Z,94188.00
2023-03-06T02:11:53.853Z,94188.00
2023-03-06T02:12:53.842Z,94184.00
2023-03-06T02:13:53.840Z,94182.00
2023-03-06T02:14:54.103Z,94182.00
2023-03-06T02:15:53.818Z,94182.00
2023-03-06T02:16:53.829Z,94182.00
2023-03-06T02:17:53.797Z,94180.00
2023-03-06T02:18:53.801Z,94182.00
2023-03-06T02:19:53.789Z,94184.00
2023-03-06T02:20:53.777Z,94180.00
2023-03-06T02:21:53.765Z,94180.00
2023-03-06T02:22:53.754Z,94178.00
2023-03-06T02:23:53.751Z,94182.00
2023-03-06T02:24:53.737Z,94180.00
2023-03-06T02:25:53.729Z,94176.00
2023-03-06T02:26:53.732Z,94174.00
2023-03-06T02:27:53.712Z,94174.00
2023-03-06T02:28:53.700Z,94171.00
2023-03-06T02:29:53.688Z,94173.00
2023-03-06T02:30:53.756Z,94167.00
2023-03-06T02:31:53.675Z,94165.00
2023-03-06T02:32:53.662Z,94165.00
2023-03-06T02:33:53.651Z,94165.00
2023-03-06T02:34:54.287Z,94161.00
2023-03-06T02:35:53.686Z,94165.00
2023-03-06T02:36:53.630Z,94161.00
2023-03-06T02:37:53.623Z,94157.00
2023-03-06T02:38:53.615Z,94157.00
2023-03-06T02:39:53.600Z,94153.00
2023-03-06T02:40:53.596Z,94149.00
2023-03-06T02:41:53.581Z,94147.00
2023-03-06T02:42:53.585Z,94143.00
2023-03-06T02:43:53.567Z,94143.00
2023-03-06T02:44:53.575Z,94141.00
2023-03-06T02:45:53.602Z,94137.00
2023-03-06T02:46:53.559Z,94139.00
2023-03-06T02:47:53.529Z,94135.00
2023-03-06T02:48:53.519Z,94131.00
2023-03-06T02:49:53.522Z,94133.00
2023-03-06T02:50:53.496Z,94133.00
2023-03-06T02:51:53.522Z,94131.00
2023-03-06T02:52:53.481Z,94127.00
2023-03-06T02:53:53.494Z,94129.00
2023-03-06T02:54:53.471Z,94127.00
2023-03-06T02:55:53.478Z,94125.00
2023-03-06T02:56:53.437Z,94125.00
2023-03-06T02:57:53.436Z,94121.00
2023-03-06T02:58:53.423Z,94112.00
2023-03-06T02:59:53.423Z,94112.00
2023-03-06T03:00:53.408Z,94112.00
2023-03-06T03:01:53.436Z,94119.00
2023-03-06T03:02:53.410Z,94112.00
2023-03-06T03:03:53.383Z,94108.00
2023-03-06T03:04:53.405Z,94110.00
2023-03-06T03:05:53.362Z,94106.00
2023-03-06T03:06:53.349Z,94104.00
2023-03-06T03:07:53.349Z,94106.00
2023-03-06T03:08:53.333Z,94106.00
2023-03-06T03:09:53.321Z,94102.00
2023-03-06T03:10:53.315Z,94102.00
2023-03-06T03:11:53.304Z,94100.00
2023-03-06T03:12:53.300Z,94098.00
2023-03-06T03:13:53.289Z,94098.00
2023-03-06T03:14:53.277Z,94098.00
2023-03-06T03:15:53.287Z,94096.00
2023-03-06T03:16:53.259Z,94094.00
2023-03-06T03:17:53.254Z,94096.00
2023-03-06T03:18:53.265Z,94094.00
2023-03-06T03:19:53.235Z,94092.00
2023-03-06T03:20:53.236Z,94094.00
2023-03-06T03:21:53.216Z,94092.00
2023-03-06T03:22:53.220Z,94088.00
2023-03-06T03:23:53.199Z,94086.00
2023-03-06T03:24:53.272Z,94092.00
2023-03-06T03:25:53.182Z,94088.00
2023-03-06T03:26:53.173Z,94082.00
2023-03-06T03:27:53.170Z,94080.00
2023-03-06T03:28:53.155Z,94080.00
2023-03-06T03:29:53.150Z,94080.00
2023-03-06T03:30:53.221Z,94076.00
2023-03-06T03:31:53.134Z,94078.00
2023-03-06T03:32:53.122Z,94076.00
2023-03-06T03:33:53.112Z,94073.00
2023-03-06T03:34:53.131Z,94073.00
2023-03-06T03:35:53.107Z,94071.00
2023-03-06T03:36:53.087Z,94071.00
2023-03-06T03:37:53.094Z,94069.00
2023-03-06T03:38:53.067Z,94071.00
2023-03-06T03:39:53.059Z,94071.00
2023-03-06T03:40:53.048Z,94069.00
2023-03-06T03:41:53.044Z,94069.00
2023-03-06T03:42:53.032Z,94065.00
2023-03-06T03:43:53.021Z,94065.00
2023-03-06T03:44:53.012Z,94061.00
2023-03-06T03:45:53.008Z,94061.00
2023-03-06T03:46:52.998Z,94057.00
2023-03-06T03:47:52.993Z,94055.00
2023-03-06T03:48:52.981Z,94051.00
2023-03-06T03:49:52.974Z,94051.00
2023-03-06T03:50:53.000Z,94049.00
2023-03-06T03:51:52.954Z,94049.00
2023-03-06T03:52:52.949Z,94047.00
2023-03-06T03:53:52.930Z,94047.00
2023-03-06T03:54:52.927Z,94047.00
2023-03-06T03:55:52.914Z,94045.00
2023-03-06T03:56:52.907Z,94045.00
2023-03-06T03:57:52.894Z,94047.00
2023-03-06T03:58:52.896Z,94047.00
2023-03-06T03:59:52.880Z,94045.00
2023-03-06T04:00:52.872Z,94043.00
2023-03-06T04:01:53.012Z,94043.00
2023-03-06T04:02:52.857Z,94045.00
2023-03-06T04:03:52.836Z,94039.00
2023-03-06T04:04:52.864Z,94039.00
2023-03-06T04:05:52.822Z,94037.00
2023-03-06T04:06:52.848Z,94037.00
2023-03-06T04:07:52.806Z,94035.00
2023-03-06T04:08:52.793Z,94035.00
2023-03-06T04:09:52.783Z,94033.00
2023-03-06T04:10:52.779Z,94031.00
2023-03-06T04:11:52.771Z,94029.00
2023-03-06T04:12:52.785Z,94029.00
2023-03-06T04:13:52.759Z,94026.00
2023-03-06T04:14:52.744Z,94027.00
2023-03-06T04:15:52.780Z,94027.00
2023-03-06T04:16:52.723Z,94024.00
2023-03-06T04:17:52.711Z,94022.00
2023-03-06T04:18:52.705Z,94022.00
2023-03-06T04:19:52.702Z,94024.00
2023-03-06T04:20:52.700Z,94024.00
2023-03-06T04:21:52.676Z,94020.00
2023-03-06T04:22:52.692Z,94018.00
2023-03-06T04:23:52.662Z,94016.00
2023-03-06T04:24:52.650Z,94016.00
2023-03-06T04:25:52.648Z,94014.00
2023-03-06T04:26:52.633Z,94014.00
2023-03-06T04:27:52.624Z,94016.00
2023-03-06T04:28:52.620Z,94012.00
2023-03-06T04:29:52.609Z,94010.00
2023-03-06T04:30:52.610Z,94008.00
2023-03-06T04:31:52.588Z,94008.00
2023-03-06T04:32:52.578Z,94004.00
2023-03-06T04:33:52.576Z,94004.00
2023-03-06T04:34:52.566Z,94004.00
2023-03-06T04:35:52.589Z,94006.00
2023-03-06T04:36:52.544Z,94004.00
2023-03-06T04:37:52.543Z,94004.00
2023-03-06T04:38:52.608Z,94004.00
2023-03-06T04:39:52.518Z,94004.00
2023-03-06T04:40:52.508Z,94004.00
2023-03-06T04:41:52.507Z,94004.00
2023-03-06T04:42:52.494Z,94006.00
2023-03-06T04:43:52.490Z,94006.00
2023-03-06T04:44:52.474Z,94008.00
2023-03-06T04:45:52.575Z,94008.00
2023-03-06T04:46:52.457Z,94004.00
2023-03-06T04:47:52.449Z,94004.00
2023-03-06T04:48:52.443Z,94002.00
2023-03-06T04:49:52.431Z,93998.00
2023-03-06T04:50:52.423Z,94000.00
2023-03-06T04:51:52.417Z,94002.00
2023-03-06T04:52:52.396Z,94002.00
2023-03-06T04:53:52.415Z,94004.00
2023-03-06T04:54:52.411Z,94006.00
2023-03-06T04:55:52.377Z,94004.00
2023-03-06T04:56:52.367Z,94008.00
2023-03-06T04:57:52.356Z,94006.00
2023-03-06T04:58:52.356Z,94006.00
2023-03-06T04:59:52.344Z,94004.00
2023-03-06T05:00:52.406Z,94002.00
2023-03-06T05:01:52.371Z,94002.00
2023-03-06T05:02:52.315Z,94004.00
2023-03-06T05:03:52.304Z,94002.00
2023-03-06T05:04:52.300Z,94002.00
2023-03-06T05:05:52.281Z,94004.00
2023-03-06T05:06:52.276Z,94004.00
2023-03-06T05:07:52.271Z,94006.00
2023-03-06T05:08:52.253Z,94002.00
2023-03-06T05:09:52.249Z,94002.00
2023-03-06T05:10:52.262Z,94000.00
2023-03-06T05:11:52.227Z,94000.00
2023-03-06T05:12:52.220Z,93996.00
2023-03-06T05:13:52.210Z,93998.00
2023-03-06T05:14:52.201Z,93998.00
2023-03-06T05:15:52.191Z,94002.00
2023-03-06T05:16:52.190Z,94002.00
2023-03-06T05:17:52.837Z,94002.00
2023-03-06T05:18:52.175Z,94000.00
2023-03-06T05:19:52.155Z,94002.00
2023-03-06T05:20:52.147Z,93998.00
2023-03-06T05:21:52.134Z,94002.00
2023-03-06T05:22:52.129Z,94000.00
2023-03-06T05:23:52.122Z,93998.00
2023-03-06T05:24:52.109Z,93998.00
2023-03-06T05:25:52.102Z,93998.00
2023-03-06T05:26:52.117Z,94000.00
2023-03-06T05:27:52.079Z,94000.00
2023-03-06T05:28:52.083Z,94000.00
2023-03-06T05:29:52.065Z,94000.00
2023-03-06T05:30:52.069Z,94004.00
2023-03-06T05:31:52.127Z,94002.00
2023-03-06T05:32:52.064Z,94002.00
2023-03-06T05:33:52.028Z,94000.00
2023-03-06T05:34:52.019Z,94002.00
2023-03-06T05:35:52.060Z,93998.00
2023-03-06T05:36:52.049Z,94000.00
2023-03-06T05:37:51.998Z,93998.00
2023-03-06T05:38:51.995Z,94000.00
2023-03-06T05:39:51.993Z,93998.00
2023-03-06T05:40:51.985Z,94000.00
2023-03-06T05:41:51.969Z,93998.00
2023-03-06T05:42:51.987Z,93998.00
2023-03-06T05:43:51.943Z,93998.00
2023-03-06T05:44:51.958Z,93998.00
2023-03-06T05:45:51.993Z,94000.00
2023-03-06T05:46:51.920Z,94000.00
2023-03-06T05:47:51.923Z,94002.00
2023-03-06T05:48:51.902Z,94002.00
2023-03-06T05:49:51.900Z,94002.00
2023-03-06T05:50:51.883Z,94004.00
2023-03-06T05:51:51.872Z,94006.00
2023-03-06T05:52:51.861Z,94004.00
2023-03-06T05:53:51.855Z,94006.00
2023-03-06T05:54:51.844Z,94008.00
2023-03-06T05:55:51.848Z,94006.00
2023-03-06T05:56:51.827Z,94006.00
2023-03-06T05:57:51.815Z,94006.00
2023-03-06T05:58:51.856Z,94006.00
2023-03-06T05:59:51.829Z,94010.00
2023-03-06T06:00:51.790Z,94006.00
2023-03-06T06:01:51.777Z,94006.00
2023-03-06T06:02:51.833Z,94010.00
2023-03-06T06:03:51.886Z,94012.00
2023-03-06T06:04:51.751Z,94012.00
2023-03-06T06:05:51.800Z,94012.00
2023-03-06T06:06:51.732Z,94016.00
2023-03-06T06:07:51.723Z,94012.00
2023-03-06T06:08:51.713Z,94012.00
2023-03-06T06:09:51.838Z,94016.00
2023-03-06T06:10:53.464Z,94018.00
2023-03-06T06:11:51.691Z,94020.00
2023-03-06T06:12:51.690Z,94020.00
2023-03-06T06:13:51.674Z,94020.00
2023-03-06T06:14:51.684Z,94020.00
2023-03-06T06:15:51.722Z,94016.00
2023-03-06T06:16:51.651Z,94020.00
2023-03-06T06:17:51.635Z,94016.00
2023-03-06T06:18:51.625Z,94018.00
2023-03-06T06:19:51.616Z,94026.00
2023-03-06T06:20:51.606Z,94026.00
2023-03-06T06:21:51.596Z,94022.00
2023-03-06T06:22:51.834Z,94024.00
2023-03-06T06:23:51.585Z,94022.00
2023-03-06T06:24:51.565Z,94018.00
2023-03-06T06:25:51.560Z,94020.00
2023-03-06T06:26:51.550Z,94020.00
2023-03-06T06:27:51.547Z,94024.00
2023-03-06T06:28:51.847Z,94024.00
2023-03-06T06:29:51.522Z,94024.00
2023-03-06T06:30:51.566Z,94022.00
2023-03-06T06:31:51.532Z,94024.00
2023-03-06T06:32:51.517Z,94022.00
2023-03-06T06:33:51.488Z,94022.00
2023-03-06T06:34:51.481Z,94022.00
2023-03-06T06:35:51.523Z,94024.00
2023-03-06T06:36:53.398Z,94022.00
2023-03-06T06:37:51.449Z,94024.00
2023-03-06T06:38:51.448Z,94026.00
2023-03-06T06:39:51.435Z,94024.00
2023-03-06T06:41:25.556Z,94022.00
2023-03-06T06:42:05.531Z,94022.00
2023-03-06T06:42:51.411Z,94020.00
2023-03-06T06:43:51.849Z,94018.00
2023-03-06T06:44:51.423Z,94014.00
2023-03-06T06:45:52.186Z,94016.00
2023-03-06T06:47:51.649Z,94016.00
2023-03-06T06:48:51.569Z,94020.00
2023-03-06T06:50:51.565Z,94016.00
2023-03-06T06:51:51.849Z,94020.00
2023-03-06T06:52:51.591Z,94022.00
2023-03-06T06:53:51.550Z,94016.00
2023-03-06T06:54:51.849Z,94020.00
2023-03-06T06:56:51.497Z,94020.00
2023-03-06T06:57:51.686Z,94018.00
2023-03-06T06:58:51.488Z,94016.00
2023-03-06T06:59:53.899Z,94020.00
2023-03-06T07:02:51.489Z,94018.00
2023-03-06T07:03:51.444Z,94020.00
2023-03-06T07:05:04.772Z,94020.00
2023-03-06T07:05:51.525Z,94020.00
2023-03-06T07:06:51.888Z,94022.00
2023-03-06T07:07:52.401Z,94022.00
2023-03-06T07:08:51.389Z,94022.00
2023-03-06T07:09:51.380Z,94024.00
2023-03-06T07:10:51.437Z,94022.00
2023-03-06T07:12:07.451Z,94024.00
2023-03-06T07:12:51.357Z,94022.00
2023-03-06T07:14:51.351Z,94024.00
2023-03-06T07:15:51.391Z,94024.00
2023-03-06T07:16:51.358Z,94024.00
2023-03-06T07:17:51.356Z,94026.00
2023-03-06T07:18:51.350Z,94026.00
2023-03-06T07:19:51.302Z,94027.00
2023-03-06T07:20:51.364Z,94026.00
2023-03-06T07:21:51.281Z,94026.00
2023-03-06T07:22:52.028Z,94027.00
2023-03-06T07:23:51.254Z,94029.00
2023-03-06T07:24:51.249Z,94029.00
2023-03-06T07:25:51.362Z,94029.00
2023-03-06T07:26:51.250Z,94029.00
2023-03-06T07:27:53.867Z,94029.00
2023-03-06T07:28:52.934Z,94031.00
2023-03-06T07:29:51.201Z,94029.00
2023-03-06T07:30:51.323Z,94026.00
2023-03-06T07:31:51.185Z,94027.00
2023-03-06T07:32:51.185Z,94029.00
2023-03-06T07:33:51.169Z,94027.00
2023-03-06T07:34:51.181Z,94027.00
2023-03-06T07:35:51.173Z,94029.00
2023-03-06T07:36:51.146Z,94027.00
2023-03-06T07:37:51.372Z,94029.00
2023-03-06T07:38:51.121Z,94029.00
2023-03-06T07:39:51.362Z,94027.00
2023-03-06T07:40:51.514Z,94027.00
2023-03-06T07:41:51.094Z,94027.00
2023-03-06T07:42:51.086Z,94027.00
2023-03-06T07:43:51.093Z,94029.00
2023-03-06T07:44:51.373Z,94027.00
2023-03-06T07:45:51.065Z,94031.00
2023-03-06T07:46:51.085Z,94031.00
2023-03-06T07:47:51.398Z,94029.00
2023-03-06T07:48:51.588Z,94033.00
2023-03-06T07:49:51.374Z,94033.00
2023-03-06T07:50:51.892Z,94033.00
2023-03-06T07:51:51.025Z,94029.00
2023-03-06T07:52:50.997Z,94031.00
2023-03-06T07:53:51.257Z,94033.00
2023-03-06T07:54:51.373Z,94037.00
2023-03-06T07:55:50.991Z,94035.00
2023-03-06T07:56:50.962Z,94033.00
2023-03-06T07:57:51.373Z,94035.00
2023-03-06T07:58:50.941Z,94037.00
2023-03-06T07:59:50.940Z,94037.00
2023-03-06T08:00:51.399Z,94037.00
2023-03-06T08:01:50.920Z,94037.00
2023-03-06T08:02:51.404Z,94037.00
2023-03-06T08:03:50.961Z,94035.00
2023-03-06T08:04:50.895Z,94035.00
2023-03-06T08:06:50.898Z,94035.00
2023-03-06T08:07:50.878Z,94033.00
2023-03-06T08:08:50.866Z,94033.00
2023-03-06T08:09:50.874Z,94033.00
2023-03-06T08:10:50.875Z,94031.00
2023-03-06T08:11:50.864Z,94035.00
2023-03-06T08:12:50.916Z,94037.00
2023-03-06T08:13:51.325Z,94037.00
2023-03-06T08:14:50.833Z,94041.00
2023-03-06T08:15:50.828Z,94041.00
2023-03-06T08:16:51.088Z,94037.00
2023-03-06T08:17:50.908Z,94035.00
2023-03-06T08:18:50.782Z,94029.00
2023-03-06T08:19:51.642Z,94029.00
2023-03-06T08:20:51.689Z,94027.00
2023-03-06T08:21:50.773Z,94024.00
2023-03-06T08:22:50.908Z,94024.00
2023-03-06T08:23:50.787Z,94024.00
2023-03-06T08:24:50.772Z,94026.00
2023-03-06T08:25:50.768Z,94027.00
2023-03-06T08:26:50.759Z,94033.00
2023-03-06T08:27:51.012Z,94039.00
2023-03-06T08:28:50.711Z,94045.00
2023-03-06T08:29:50.691Z,94041.00
2023-03-06T08:30:50.682Z,94041.00
2023-03-06T08:31:50.796Z,94041.00
2023-03-06T08:32:50.916Z,94035.00
2023-03-06T08:33:50.648Z,94029.00
2023-03-06T08:34:50.655Z,94027.00
2023-03-06T08:35:50.685Z,94029.00
2023-03-06T08:36:50.632Z,94035.00
2023-03-06T08:37:50.885Z,94037.00
2023-03-06T08:38:50.607Z,94039.00
2023-03-06T08:39:50.576Z,94039.00
2023-03-06T08:40:50.887Z,94033.00
2023-03-06T08:41:50.554Z,94037.00
2023-03-06T08:42:50.565Z,94037.00
2023-03-06T08:43:50.889Z,94043.00
2023-03-06T08:44:50.542Z,94041.00
2023-03-06T08:45:50.557Z,94037.00
2023-03-06T08:46:50.889Z,94033.00
2023-03-06T08:47:50.496Z,94026.00
2023-03-06T08:48:50.501Z,94027.00
2023-03-06T08:49:50.889Z,94027.00
2023-03-06T08:50:50.481Z,94020.00
2023-03-06T08:51:50.470Z,94022.00
2023-03-06T08:52:50.452Z,94022.00
2023-03-06T08:53:50.894Z,94024.00
2023-03-06T08:55:50.425Z,94026.00
2023-03-06T08:56:51.441Z,94018.00
2023-03-06T08:57:50.415Z,94012.00
2023-03-06T08:58:50.938Z,94008.00
2023-03-06T08:59:50.416Z,94014.00
2023-03-06T09:00:50.495Z,94018.00
2023-03-06T09:01:51.383Z,94020.00
2023-03-06T09:02:50.364Z,94016.00
2023-03-06T09:03:50.398Z,94016.00
2023-03-06T09:04:50.345Z,94018.00
2023-03-06T09:05:50.329Z,94014.00
2023-03-06T09:06:50.892Z,94016.00
2023-03-06T09:07:50.312Z,94018.00
2023-03-06T09:21:50.185Z,94026.00
2023-03-06T09:35:50.124Z,94026.00
2023-03-06T09:41:50.415Z,94033.00
2023-03-06T09:45:50.339Z,94031.00
2023-03-06T09:51:49.915Z,94031.00
2023-03-06T09:58:49.900Z,94022.00
2023-03-06T10:01:49.971Z,94016.00
2023-03-06T10:05:49.810Z,94014.00
2023-03-06T10:13:49.763Z,94008.00
2023-03-06T10:14:49.746Z,94006.00
2023-03-06T10:25:49.962Z,93988.00
2023-03-06T10:35:49.701Z,93973.00
2023-03-06T10:36:49.964Z,93973.00
2023-03-06T10:47:49.462Z,93963.00
2023-03-06T10:51:49.406Z,93957.00
2023-03-06T10:52:49.433Z,93953.00
2023-03-06T10:55:49.360Z,93943.00
2023-03-06T10:56:49.366Z,93941.00
2023-03-06T10:57:50.430Z,93937.00
2023-03-06T10:59:49.441Z,93935.00
2023-03-06T11:01:49.349Z,93935.00
2023-03-06T11:02:49.495Z,93933.00
2023-03-06T11:05:49.273Z,93939.00
2023-03-06T11:06:49.469Z,93945.00
2023-03-06T11:08:49.240Z,93941.00
2023-03-06T11:09:49.242Z,93943.00
2023-03-06T11:10:49.439Z,93943.00
2023-03-06T11:12:56.633Z,93937.00
2023-03-06T11:14:49.221Z,93932.00
2023-03-06T11:15:49.468Z,93932.00
2023-03-06T11:17:49.165Z,93933.00
2023-03-06T11:18:49.476Z,93930.00
2023-03-06T11:20:52.634Z,93926.00
2023-03-06T11:21:49.135Z,93924.00
2023-03-06T11:22:49.361Z,93922.00
2023-03-06T11:25:49.098Z,93914.00
2023-03-06T11:28:49.512Z,93914.00
2023-03-06T11:32:49.972Z,93908.00
2023-03-06T11:35:49.032Z,93902.00
2023-03-06T11:36:48.997Z,93898.00
2023-03-06T11:37:49.452Z,93900.00
2023-03-06T11:38:48.995Z,93900.00
2023-03-06T11:39:49.655Z,93902.00
2023-03-06T11:40:48.998Z,93902.00
2023-03-06T11:41:48.961Z,93896.00
2023-03-06T11:42:49.452Z,93894.00
2023-03-06T11:43:48.950Z,93890.00
2023-03-06T11:44:48.954Z,93890.00
2023-03-06T11:45:48.933Z,93886.00
2023-03-06T11:46:49.011Z,93888.00
2023-03-06T11:48:49.470Z,93879.00
2023-03-06T11:49:49.306Z,93877.00
2023-03-06T11:50:48.923Z,93877.00
2023-03-06T11:51:48.962Z,93871.00
2023-03-06T11:52:48.949Z,93867.00
2023-03-06T11:54:48.834Z,93871.00
2023-03-06T11:55:48.902Z,93871.00
2023-03-06T11:56:48.962Z,93871.00
2023-03-06T11:57:48.813Z,93869.00
2023-03-06T11:58:48.958Z,93873.00
2023-03-06T11:59:48.799Z,93865.00
2023-03-06T12:00:48.796Z,93867.00
2023-03-06T12:01:49.821Z,93863.00
2023-03-06T12:02:48.768Z,93863.00
2023-03-06T12:03:48.960Z,93853.00
2023-03-06T12:04:48.769Z,93863.00
2023-03-06T12:05:48.760Z,93853.00
2023-03-06T12:06:48.767Z,93853.00
2023-03-06T12:07:48.722Z,93851.00
2023-03-06T12:08:48.960Z,93855.00
2023-03-06T12:09:48.962Z,93845.00
2023-03-06T12:10:51.736Z,93845.00
2023-03-06T12:11:49.520Z,93847.00
2023-03-06T12:12:48.709Z,93841.00
2023-03-06T12:13:48.961Z,93841.00
2023-03-06T12:14:48.874Z,93843.00
2023-03-06T12:15:48.654Z,93843.00
2023-03-06T12:16:48.704Z,93849.00
2023-03-06T12:17:48.641Z,93843.00
2023-03-06T12:18:48.967Z,93843.00
2023-03-06T12:19:48.968Z,93841.00
2023-03-06T12:20:48.966Z,93840.00
2023-03-06T12:21:48.613Z,93843.00
2023-03-06T12:22:57.875Z,93841.00
2023-03-06T12:23:50.036Z,93838.00
2023-03-06T12:25:48.596Z,93841.00
2023-03-06T12:26:48.564Z,93836.00
2023-03-06T12:27:48.561Z,93836.00
2023-03-06T12:28:48.544Z,93838.00
2023-03-06T12:29:48.980Z,93840.00
2023-03-06T12:30:48.537Z,93840.00
2023-03-06T12:31:48.579Z,93840.00
2023-03-06T12:32:48.575Z,93838.00
2023-03-06T12:33:48.503Z,93838.00
2023-03-06T12:34:48.978Z,93840.00
2023-03-06T12:35:48.567Z,93841.00
2023-03-06T12:36:48.478Z,93840.00
2023-03-06T12:37:48.978Z,93841.00
2023-03-06T12:38:48.533Z,93840.00
2023-03-06T12:39:48.463Z,93840.00
2023-03-06T12:40:48.941Z,93834.00
2023-03-06T12:41:48.435Z,93834.00
2023-03-06T12:42:48.421Z,93834.00
2023-03-06T12:43:48.411Z,93836.00
2023-03-06T12:44:48.600Z,93830.00
2023-03-06T12:45:48.460Z,93830.00
2023-03-06T12:46:48.389Z,93828.00
2023-03-06T12:47:48.393Z,93828.00
2023-03-06T12:48:48.407Z,93830.00
2023-03-06T12:49:48.603Z,93830.00
2023-03-06T12:50:48.476Z,93832.00
2023-03-06T12:51:48.353Z,93830.00
2023-03-06T12:52:48.371Z,93836.00
2023-03-06T12:53:48.333Z,93834.00
2023-03-06T12:54:48.354Z,93836.00
2023-03-06T12:55:48.486Z,93840.00
2023-03-06T12:56:48.305Z,93834.00
2023-03-06T12:57:48.299Z,93832.00
2023-03-06T12:58:48.489Z,93832.00
2023-03-06T12:59:48.286Z,93830.00
2023-03-06T13:00:52.590Z,93838.00
2023-03-06T13:01:48.309Z,93838.00
2023-03-06T13:02:48.530Z,93836.00
2023-03-06T13:03:48.246Z,93840.00
2023-03-06T13:04:48.239Z,93834.00
2023-03-06T13:05:48.247Z,93838.00
2023-03-06T13:06:50.944Z,93840.00
2023-03-06T13:07:48.499Z,93838.00
2023-03-06T13:08:48.448Z,93834.00
2023-03-06T13:10:48.540Z,93841.00
2023-03-06T13:11:48.179Z,93841.00
2023-03-06T13:12:48.486Z,93843.00
2023-03-06T13:13:48.163Z,93849.00
2023-03-06T13:14:54.058Z,93847.00
2023-03-06T13:15:48.149Z,93847.00
2023-03-06T13:16:48.189Z,93841.00
2023-03-06T13:17:48.128Z,93847.00
2023-03-06T13:18:48.496Z,93845.00
2023-03-06T13:19:48.114Z,93847.00
2023-03-06T13:20:48.491Z,93847.00
2023-03-06T13:21:48.553Z,93849.00
2023-03-06T13:22:48.092Z,93851.00
2023-03-06T13:23:48.086Z,93853.00
2023-03-06T13:24:49.476Z,93853.00
2023-03-06T13:25:48.109Z,93853.00
2023-03-06T13:26:48.170Z,93851.00
2023-03-06T13:27:48.040Z,93849.00
2023-03-06T13:28:48.039Z,93855.00
2023-03-06T13:29:48.493Z,93855.00
2023-03-06T13:30:48.040Z,93863.00
2023-03-06T13:31:48.066Z,93863.00
2023-03-06T13:32:48.493Z,93853.00
2023-03-06T13:33:48.006Z,93855.00
2023-03-06T13:34:47.985Z,93863.00
2023-03-06T13:35:48.047Z,93865.00
2023-03-06T13:36:47.973Z,93863.00
2023-03-06T13:37:48.000Z,93867.00
2023-03-06T13:38:47.999Z,93867.00
2023-03-06T13:39:47.938Z,93863.00
2023-03-06T13:40:47.930Z,93867.00
2023-03-06T13:41:47.929Z,93867.00
2023-03-06T13:42:47.935Z,93869.00
2023-03-06T13:43:47.920Z,93871.00
2023-03-06T13:44:47.927Z,93871.00
2023-03-06T13:45:47.942Z,93873.00
2023-03-06T13:46:47.880Z,93873.00
2023-03-06T13:48:25.042Z,93869.00
2023-03-06T13:48:47.916Z,93871.00
2023-03-06T13:49:47.854Z,93867.00
2023-03-06T13:50:47.858Z,93867.00
2023-03-06T13:51:47.847Z,93871.00
2023-03-06T13:52:47.829Z,93867.00
2023-03-06T13:53:47.875Z,93869.00
2023-03-06T13:54:47.813Z,93869.00
2023-03-06T13:55:47.998Z,93871.00
2023-03-06T13:56:47.808Z,93871.00
2023-03-06T13:57:47.793Z,93871.00
2023-03-06T13:58:48.034Z,93865.00
2023-03-06T13:59:50.511Z,93867.00
2023-03-06T14:00:47.758Z,93867.00
2023-03-06T14:01:47.803Z,93853.00
2023-03-06T14:02:47.750Z,93871.00
2023-03-06T14:03:48.007Z,93879.00
2023-03-06T14:04:47.732Z,93877.00
2023-03-06T14:06:47.709Z,93877.00
2023-03-06T14:07:47.698Z,93881.00
2023-03-06T14:08:48.446Z,93877.00
2023-03-06T14:09:48.013Z,93879.00
2023-03-06T14:10:48.315Z,93877.00
2023-03-06T14:11:48.106Z,93879.00
2023-03-06T14:12:47.954Z,93881.00
2023-03-06T14:14:48.417Z,93885.00
2023-03-06T14:15:48.147Z,93886.00
2023-03-06T14:16:50.417Z,93890.00
2023-03-06T14:17:47.622Z,93890.00
2023-03-06T14:18:47.602Z,93892.00
2023-03-06T14:19:48.000Z,93890.00
2023-03-06T14:20:47.590Z,93892.00
2023-03-06T14:21:47.605Z,93894.00
2023-03-06T14:23:47.565Z,93894.00
2023-03-06T14:24:47.558Z,93894.00
2023-03-06T14:26:47.536Z,93894.00
2023-03-06T14:27:47.533Z,93892.00
2023-03-06T14:29:48.009Z,93890.00
2023-03-06T14:30:47.526Z,93888.00
2023-03-06T14:31:47.486Z,93886.00
2023-03-06T14:32:47.481Z,93888.00
2023-03-06T14:33:47.465Z,93886.00
2023-03-06T14:34:47.510Z,93888.00
2023-03-06T14:35:47.489Z,93890.00
2023-03-06T14:36:47.515Z,93886.00
2023-03-06T14:37:47.440Z,93888.00
2023-03-06T14:38:47.473Z,93886.00
2023-03-06T14:39:47.513Z,93886.00
2023-03-06T14:40:47.413Z,93890.00
2023-03-06T14:41:47.420Z,93886.00
2023-03-06T14:42:47.401Z,93883.00
2023-03-06T14:43:47.388Z,93883.00
2023-03-06T14:44:47.391Z,93881.00